createdAt,value
2018-01-10T05:00:50.936Z,0
2018-01-10T05:01:16.451Z,0
2018-01-10T05:01:41.901Z,0
2018-01-10T05:02:07.442Z,0
2018-01-10T05:02:32.901Z,0
2018-01-10T05:02:58.408Z,0
2018-01-10T05:03:23.877Z,0
2018-01-10T05:04:27.729Z,0
2018-01-10T05:04:53.192Z,0
2018-01-10T05:05:18.699Z,0
2018-01-10T05:05:44.276Z,0
2018-01-10T05:06:09.750Z,0
2018-01-10T05:07:18.649Z,0
2018-01-10T05:07:44.156Z,0
2018-01-10T05:08:09.640Z,0
2018-01-10T05:08:35.087Z,0
2018-01-10T05:09:00.560Z,0
2018-01-10T05:10:14.363Z,0
2018-01-10T05:10:39.856Z,0
2018-01-10T05:11:05.340Z,0
2018-01-10T05:11:30.947Z,0
2018-01-10T05:11:56.441Z,0
2018-01-10T05:12:21.931Z,0
2018-01-10T05:12:47.443Z,0
2018-01-10T05:13:12.921Z,0
2018-01-10T05:13:38.361Z,0
2018-01-10T05:14:03.845Z,0
2018-01-10T05:14:29.312Z,0
2018-01-10T05:14:54.787Z,0
2018-01-10T05:15:20.254Z,0
2018-01-10T05:15:45.737Z,0
2018-01-10T05:16:11.220Z,0
2018-01-10T05:16:36.709Z,0
2018-01-10T05:17:40.318Z,0
2018-01-10T05:18:05.791Z,0
2018-01-10T05:18:31.319Z,0
2018-01-10T05:18:56.817Z,0
2018-01-10T05:19:22.312Z,0
2018-01-10T05:19:47.798Z,0
2018-01-10T05:20:13.285Z,0
2018-01-10T05:21:32.186Z,0
2018-01-10T05:21:57.677Z,0
2018-01-10T05:22:23.131Z,0
2018-01-10T05:23:26.752Z,0
2018-01-10T05:23:52.240Z,0
2018-01-10T05:24:17.720Z,0
2018-01-10T05:24:43.253Z,0
2018-01-10T05:25:08.727Z,0
2018-01-10T05:25:34.169Z,0
2018-01-10T05:25:59.614Z,0
2018-01-10T05:26:25.091Z,0
2018-01-10T05:26:50.600Z,0
2018-01-10T05:27:16.133Z,0
2018-01-10T05:27:41.576Z,0
2018-01-10T05:28:07.060Z,0
2018-01-10T05:28:32.592Z,0
2018-01-10T05:28:58.131Z,0
2018-01-10T05:29:23.608Z,0
2018-01-10T05:29:49.096Z,0
2018-01-10T05:30:14.582Z,0
2018-01-10T05:31:28.335Z,0
2018-01-10T05:31:53.830Z,0
2018-01-10T05:32:19.334Z,0
2018-01-10T05:32:44.785Z,0
2018-01-10T05:33:10.231Z,0
2018-01-10T05:33:35.688Z,0
2018-01-10T05:34:01.174Z,0
2018-01-10T05:34:26.692Z,0
2018-01-10T05:35:45.636Z,0
2018-01-10T05:36:11.096Z,0
2018-01-10T05:36:36.563Z,0
2018-01-10T05:37:02.050Z,0
2018-01-10T05:37:27.528Z,0
2018-01-10T05:37:53.044Z,0
2018-01-10T05:39:17.027Z,0
2018-01-10T05:39:42.511Z,0
2018-01-10T05:40:07.944Z,0
2018-01-10T05:40:33.519Z,0
2018-01-10T05:40:59.006Z,0
2018-01-10T05:41:24.490Z,0
2018-01-10T05:41:49.999Z,0
2018-01-10T05:42:53.641Z,0
2018-01-10T05:43:19.075Z,0
2018-01-10T05:43:44.535Z,0
2018-01-10T05:44:10.013Z,0
2018-01-10T05:44:35.490Z,0
2018-01-10T05:45:00.956Z,0
2018-01-10T05:45:26.435Z,0
2018-01-10T05:45:51.917Z,0
2018-01-10T05:46:17.416Z,0
2018-01-10T05:47:41.447Z,0
2018-01-10T05:48:06.906Z,0
2018-01-10T05:48:32.411Z,0
2018-01-10T05:48:57.890Z,0
2018-01-10T05:49:23.349Z,0
2018-01-10T05:49:48.804Z,0
2018-01-10T05:50:14.262Z,0
2018-01-10T05:50:39.712Z,0
2018-01-10T05:51:05.202Z,0
2018-01-10T05:51:30.658Z,0
2018-01-10T05:52:54.692Z,0
2018-01-10T05:53:20.180Z,0
2018-01-10T05:53:45.680Z,0
2018-01-10T05:54:11.160Z,0
2018-01-10T05:54:36.665Z,0
2018-01-10T05:55:02.154Z,0
2018-01-10T05:56:15.893Z,0
2018-01-10T05:56:41.372Z,0
2018-01-10T05:57:06.867Z,0
2018-01-10T05:57:32.367Z,0
2018-01-10T05:57:57.808Z,0
2018-01-10T05:58:23.291Z,0
2018-01-10T05:58:48.769Z,0
2018-01-10T05:59:14.260Z,0
2018-01-10T05:59:39.714Z,0
2018-01-10T06:00:05.257Z,0
2018-01-10T06:00:30.713Z,0
2018-01-10T06:01:39.386Z,0
2018-01-10T06:02:04.853Z,0
2018-01-10T06:02:30.317Z,0
2018-01-10T06:02:55.826Z,0
2018-01-10T06:03:21.289Z,0
2018-01-10T06:03:46.741Z,0
2018-01-10T06:04:12.187Z,0
2018-01-10T06:04:37.669Z,0
2018-01-10T06:05:03.129Z,0
2018-01-10T06:05:28.655Z,0
2018-01-10T06:05:54.094Z,0
2018-01-10T06:07:07.888Z,0
2018-01-10T06:07:33.358Z,0
2018-01-10T06:07:58.843Z,0
2018-01-10T06:08:24.307Z,0
2018-01-10T06:08:49.780Z,0
2018-01-10T06:09:15.264Z,0
2018-01-10T06:09:40.777Z,0
2018-01-10T06:10:06.276Z,0
2018-01-10T06:10:31.760Z,0
2018-01-10T06:10:57.216Z,0
2018-01-10T06:11:22.654Z,0
2018-01-10T06:11:48.125Z,0
2018-01-10T06:12:13.623Z,0
2018-01-10T06:12:39.068Z,0
2018-01-10T06:13:04.590Z,0
2018-01-10T06:13:30.063Z,0
2018-01-10T06:13:55.512Z,0
2018-01-10T06:14:21.001Z,0
2018-01-10T06:14:46.498Z,0
2018-01-10T06:15:11.955Z,0
2018-01-10T06:15:37.395Z,0
2018-01-10T06:16:02.839Z,0
2018-01-10T06:16:28.320Z,0
2018-01-10T06:16:53.839Z,0
2018-01-10T06:17:19.288Z,0
2018-01-10T06:17:44.776Z,0
2018-01-10T06:18:10.238Z,0
2018-01-10T06:18:35.756Z,0
2018-01-10T06:19:01.205Z,0
2018-01-10T06:19:26.694Z,0
2018-01-10T06:19:52.215Z,0
2018-01-10T06:20:56.813Z,0
2018-01-10T06:21:22.277Z,0
2018-01-10T06:21:47.762Z,0
2018-01-10T06:22:51.514Z,0
2018-01-10T06:23:16.975Z,0
2018-01-10T06:24:20.554Z,0
2018-01-10T06:24:46.065Z,0
2018-01-10T06:25:11.528Z,0
2018-01-10T06:25:37.004Z,0
2018-01-10T06:26:02.537Z,0
2018-01-10T06:26:28.002Z,0
2018-01-10T06:26:53.495Z,0
2018-01-10T06:27:18.944Z,0
2018-01-10T06:28:37.857Z,0
2018-01-10T06:29:03.381Z,0
2018-01-10T06:29:28.903Z,0
2018-01-10T06:29:54.318Z,0
2018-01-10T06:30:19.795Z,0
2018-01-10T06:30:45.272Z,0
2018-01-10T06:31:10.758Z,0
2018-01-10T06:31:36.215Z,0
2018-01-10T06:32:01.690Z,0
2018-01-10T06:32:27.294Z,0
2018-01-10T06:32:52.787Z,0
2018-01-10T06:33:18.223Z,0
2018-01-10T06:33:43.804Z,0
2018-01-10T06:34:09.357Z,0
2018-01-10T06:34:34.803Z,0
2018-01-10T06:35:00.262Z,0
2018-01-10T06:35:25.777Z,0
2018-01-10T06:35:51.282Z,0
2018-01-10T06:36:16.775Z,0
2018-01-10T06:36:42.257Z,0
2018-01-10T06:37:07.700Z,0
2018-01-10T06:37:33.154Z,0
2018-01-10T06:37:58.672Z,0
2018-01-10T06:38:24.188Z,0
2018-01-10T06:38:49.703Z,0
2018-01-10T06:39:15.194Z,0
2018-01-10T06:39:40.646Z,0
2018-01-10T06:40:06.166Z,0
2018-01-10T06:40:31.688Z,0
2018-01-10T06:40:57.194Z,0
2018-01-10T06:41:22.642Z,0
2018-01-10T06:41:48.103Z,0
2018-01-10T06:42:13.565Z,0
2018-01-10T06:42:39.060Z,0
2018-01-10T06:43:04.572Z,0
2018-01-10T06:43:30.006Z,0
2018-01-10T06:43:55.504Z,0
2018-01-10T06:44:20.978Z,0
2018-01-10T06:44:46.498Z,0
2018-01-10T06:45:12.022Z,0
2018-01-10T06:45:37.518Z,0
2018-01-10T06:46:03.027Z,0
2018-01-10T06:46:28.618Z,0
2018-01-10T06:46:54.140Z,0
2018-01-10T06:48:14.006Z,0
2018-01-10T06:48:39.515Z,0
2018-01-10T06:49:04.993Z,0
2018-01-10T06:49:30.496Z,0
2018-01-10T06:49:55.939Z,0
2018-01-10T06:50:21.393Z,0
2018-01-10T06:50:46.924Z,0
2018-01-10T06:51:12.381Z,0
2018-01-10T06:51:37.899Z,0
2018-01-10T06:52:03.370Z,0
2018-01-10T06:52:28.878Z,0
2018-01-10T06:52:54.445Z,0
2018-01-10T06:53:19.932Z,0
2018-01-10T06:53:45.412Z,0
2018-01-10T06:54:10.899Z,0
2018-01-10T06:54:36.398Z,0
2018-01-10T06:55:01.894Z,0
2018-01-10T06:55:27.346Z,0
2018-01-10T06:55:52.845Z,0
2018-01-10T06:56:18.357Z,0
2018-01-10T06:57:42.397Z,0
2018-01-10T06:58:07.878Z,0
2018-01-10T06:58:33.390Z,0
2018-01-10T06:58:58.889Z,0
2018-01-10T06:59:24.322Z,0
2018-01-10T06:59:49.789Z,0
2018-01-10T07:00:58.472Z,0
2018-01-10T07:01:23.968Z,4
2018-01-10T07:01:49.454Z,4
2018-01-10T07:02:14.977Z,4
2018-01-10T07:02:40.466Z,4
2018-01-10T07:03:05.932Z,4
2018-01-10T07:03:31.398Z,4
2018-01-10T07:03:56.894Z,0
2018-01-10T07:04:22.354Z,0
2018-01-10T07:04:47.798Z,4
2018-01-10T07:05:13.305Z,4
2018-01-10T07:06:27.092Z,4
2018-01-10T07:06:52.590Z,8
2018-01-10T07:07:18.061Z,4
2018-01-10T07:07:43.530Z,4
2018-01-10T07:08:08.966Z,4
2018-01-10T07:08:34.440Z,8
2018-01-10T07:08:59.881Z,8
2018-01-10T07:09:25.369Z,4
2018-01-10T07:09:50.854Z,8
2018-01-10T07:10:16.318Z,12
2018-01-10T07:10:41.776Z,8
2018-01-10T07:11:07.242Z,12
2018-01-10T07:11:32.693Z,8
2018-01-10T07:11:58.149Z,12
2018-01-10T07:12:23.620Z,12
2018-01-10T07:12:49.063Z,12
2018-01-10T07:13:14.521Z,16
2018-01-10T07:13:39.977Z,12
2018-01-10T07:14:05.484Z,16
2018-01-10T07:14:30.968Z,16
2018-01-10T07:14:56.419Z,20
2018-01-10T07:15:21.992Z,16
2018-01-10T07:15:47.419Z,20
2018-01-10T07:16:12.898Z,24
2018-01-10T07:16:38.343Z,24
2018-01-10T07:17:03.801Z,24
2018-01-10T07:17:29.294Z,24
2018-01-10T07:17:54.723Z,24
2018-01-10T07:18:20.200Z,28
2018-01-10T07:18:45.701Z,28
2018-01-10T07:19:11.224Z,28
2018-01-10T07:19:36.617Z,32
2018-01-10T07:20:02.063Z,32
2018-01-10T07:20:27.516Z,32
2018-01-10T07:20:52.982Z,36
2018-01-10T07:21:18.449Z,36
2018-01-10T07:21:43.908Z,36
2018-01-10T07:22:09.439Z,44
2018-01-10T07:22:34.892Z,44
2018-01-10T07:23:58.941Z,52
2018-01-10T07:24:24.412Z,52
2018-01-10T07:24:49.916Z,56
2018-01-10T07:25:15.348Z,56
2018-01-10T07:25:40.837Z,60
2018-01-10T07:26:06.246Z,60
2018-01-10T07:26:31.792Z,64
2018-01-10T07:26:57.223Z,64
2018-01-10T07:27:22.691Z,68
2018-01-10T07:27:48.153Z,68
2018-01-10T07:28:13.625Z,72
2018-01-10T07:28:39.078Z,72
2018-01-10T07:29:04.601Z,76
2018-01-10T07:30:23.540Z,84
2018-01-10T07:30:49.039Z,88
2018-01-10T07:31:14.469Z,92
2018-01-10T07:31:39.950Z,96
2018-01-10T07:32:05.436Z,100
2018-01-10T07:32:30.876Z,104
2018-01-10T07:32:56.334Z,108
2018-01-10T07:33:21.822Z,108
2018-01-10T07:33:47.288Z,112
2018-01-10T07:34:12.731Z,116
2018-01-10T07:34:38.263Z,124
2018-01-10T07:35:03.707Z,124
2018-01-10T07:35:29.208Z,128
2018-01-10T07:35:54.637Z,132
2018-01-10T07:37:08.434Z,144
2018-01-10T07:37:33.969Z,152
2018-01-10T07:37:59.451Z,156
2018-01-10T07:38:24.969Z,156
2018-01-10T07:38:50.401Z,160
2018-01-10T07:39:15.898Z,164
2018-01-10T07:39:41.428Z,164
2018-01-10T07:40:06.878Z,168
2018-01-10T07:40:32.318Z,172
2018-01-10T07:40:57.812Z,172
2018-01-10T07:41:23.225Z,172
2018-01-10T07:41:48.695Z,176
2018-01-10T07:42:14.236Z,180
2018-01-10T07:42:39.717Z,184
2018-01-10T07:43:05.204Z,184
2018-01-10T07:43:30.637Z,188
2018-01-10T07:43:56.124Z,196
2018-01-10T07:44:21.629Z,200
2018-01-10T07:44:47.138Z,208
2018-01-10T07:45:12.590Z,216
2018-01-10T07:45:38.054Z,224
2018-01-10T07:46:03.562Z,232
2018-01-10T07:46:29.006Z,240
2018-01-10T07:46:54.477Z,248
2018-01-10T07:47:19.952Z,256
2018-01-10T07:47:45.393Z,260
2018-01-10T07:48:10.881Z,268
2018-01-10T07:48:36.297Z,280
2018-01-10T07:49:01.756Z,288
2018-01-10T07:49:27.221Z,300
2018-01-10T07:49:52.675Z,308
2018-01-10T07:50:18.224Z,316
2018-01-10T07:50:43.655Z,328
2018-01-10T07:51:09.172Z,336
2018-01-10T07:51:34.580Z,352
2018-01-10T07:52:00.064Z,364
2018-01-10T07:52:25.559Z,368
2018-01-10T07:52:51.001Z,380
2018-01-10T07:53:16.514Z,392
2018-01-10T07:54:30.247Z,420
2018-01-10T07:54:55.740Z,428
2018-01-10T07:55:21.226Z,436
2018-01-10T07:55:46.677Z,444
2018-01-10T07:56:50.274Z,460
2018-01-10T07:57:15.776Z,464
2018-01-10T07:57:41.194Z,476
2018-01-10T07:58:06.694Z,492
2018-01-10T07:58:32.120Z,504
2018-01-10T07:58:57.601Z,520
2018-01-10T07:59:23.054Z,536
2018-01-10T07:59:48.563Z,552
2018-01-10T08:00:14.047Z,572
2018-01-10T08:00:39.553Z,584
2018-01-10T08:01:05.259Z,600
2018-01-10T08:01:30.747Z,616
2018-01-10T08:01:56.230Z,628
2018-01-10T08:02:21.677Z,640
2018-01-10T08:02:47.130Z,656
2018-01-10T08:03:12.587Z,668
2018-01-10T08:03:38.064Z,676
2018-01-10T08:04:03.573Z,680
2018-01-10T08:04:28.980Z,688
2018-01-10T08:04:54.443Z,692
2018-01-10T08:05:19.907Z,696
2018-01-10T08:05:45.394Z,700
2018-01-10T08:06:10.872Z,700
2018-01-10T08:06:36.389Z,708
2018-01-10T08:07:01.963Z,716
2018-01-10T08:07:27.475Z,724
2018-01-10T08:07:52.975Z,736
2018-01-10T08:08:18.471Z,748
2018-01-10T08:09:22.075Z,772
2018-01-10T08:09:47.577Z,788
2018-01-10T08:10:13.034Z,800
2018-01-10T08:10:38.524Z,812
2018-01-10T08:11:04.020Z,824
2018-01-10T08:11:29.433Z,836
2018-01-10T08:11:54.861Z,844
2018-01-10T08:12:20.345Z,852
2018-01-10T08:12:45.839Z,856
2018-01-10T08:13:11.313Z,860
2018-01-10T08:13:36.743Z,860
2018-01-10T08:14:02.225Z,864
2018-01-10T08:14:27.731Z,864
2018-01-10T08:14:53.275Z,868
2018-01-10T08:15:18.675Z,872
2018-01-10T08:15:44.107Z,876
2018-01-10T08:16:09.572Z,884
2018-01-10T08:16:35.042Z,896
2018-01-10T08:17:00.499Z,892
2018-01-10T08:17:26.008Z,896
2018-01-10T08:17:51.421Z,904
2018-01-10T08:18:16.993Z,904
2018-01-10T08:18:42.556Z,904
2018-01-10T08:19:08.067Z,920
2018-01-10T08:19:33.547Z,924
2018-01-10T08:19:58.996Z,932
2018-01-10T08:20:24.497Z,940
2018-01-10T08:20:49.961Z,948
2018-01-10T08:21:15.506Z,956
2018-01-10T08:21:40.890Z,956
2018-01-10T08:22:06.365Z,964
2018-01-10T08:22:31.831Z,968
2018-01-10T08:22:57.278Z,960
2018-01-10T08:23:22.710Z,956
2018-01-10T08:23:48.219Z,944
2018-01-10T08:24:13.734Z,924
2018-01-10T08:25:37.769Z,856
2018-01-10T08:26:03.444Z,844
2018-01-10T08:26:29.309Z,864
2018-01-10T08:26:54.834Z,888
2018-01-10T08:27:20.316Z,900
2018-01-10T08:27:45.812Z,912
2018-01-10T08:28:11.297Z,944
2018-01-10T08:28:36.866Z,964
2018-01-10T08:30:00.840Z,1132
2018-01-10T08:30:26.355Z,1200
2018-01-10T08:30:51.831Z,1232
2018-01-10T08:31:17.327Z,1252
2018-01-10T08:31:42.772Z,1292
2018-01-10T08:33:06.759Z,1576
2018-01-10T08:33:32.225Z,1632
2018-01-10T08:33:57.701Z,1676
2018-01-10T08:34:23.198Z,1708
2018-01-10T08:34:48.647Z,1736
2018-01-10T08:35:14.117Z,1740
2018-01-10T08:36:17.724Z,1692
2018-01-10T08:36:43.217Z,1696
2018-01-10T08:37:08.679Z,1700
2018-01-10T08:37:34.183Z,1744
2018-01-10T08:37:59.633Z,1804
2018-01-10T08:38:25.111Z,1864
2018-01-10T08:38:50.600Z,1908
2018-01-10T08:39:16.063Z,1948
2018-01-10T08:39:41.540Z,1992
2018-01-10T08:40:06.992Z,2040
2018-01-10T08:40:32.477Z,2076
2018-01-10T08:40:57.925Z,2100
2018-01-10T08:41:23.380Z,2116
2018-01-10T08:41:48.828Z,2136
2018-01-10T08:42:57.530Z,2180
2018-01-10T08:43:22.999Z,2228
2018-01-10T08:43:48.460Z,2324
2018-01-10T08:44:13.906Z,2444
2018-01-10T08:44:39.428Z,2532
2018-01-10T08:45:04.879Z,2636
2018-01-10T08:45:30.349Z,2736
2018-01-10T08:45:55.876Z,2824
2018-01-10T08:46:21.374Z,2948
2018-01-10T08:46:46.841Z,3040
2018-01-10T08:47:12.341Z,3096
2018-01-10T08:47:37.853Z,3112
2018-01-10T08:48:03.328Z,3096
2018-01-10T08:48:28.761Z,3092
2018-01-10T08:48:54.238Z,3108
2018-01-10T08:49:19.679Z,3120
2018-01-10T08:49:45.160Z,3144
2018-01-10T08:50:10.660Z,3148
2018-01-10T08:50:36.117Z,3140
2018-01-10T08:51:01.643Z,3144
2018-01-10T08:51:27.109Z,3124
2018-01-10T08:51:52.585Z,3124
2018-01-10T08:52:18.039Z,3120
2018-01-10T08:52:43.648Z,3104
2018-01-10T08:53:09.094Z,3060
2018-01-10T08:53:34.592Z,2996
2018-01-10T08:54:00.056Z,2936
2018-01-10T08:54:25.525Z,2888
2018-01-10T08:54:51.017Z,2856
2018-01-10T08:55:16.514Z,2840
2018-01-10T08:55:41.949Z,2860
2018-01-10T08:56:07.528Z,2884
2018-01-10T08:56:33.024Z,2928
2018-01-10T08:56:58.651Z,2980
2018-01-10T08:57:24.010Z,3032
2018-01-10T08:57:49.485Z,3092
2018-01-10T08:58:14.945Z,3132
2018-01-10T08:58:40.421Z,3160
2018-01-10T08:59:05.982Z,3176
2018-01-10T08:59:31.423Z,3184
2018-01-10T08:59:56.891Z,3180
2018-01-10T09:00:22.376Z,3164
2018-01-10T09:00:47.846Z,3136
2018-01-10T09:01:13.326Z,3080
2018-01-10T09:01:38.766Z,3036
2018-01-10T09:02:04.220Z,3000
2018-01-10T09:02:29.709Z,2964
2018-01-10T09:02:55.184Z,2944
2018-01-10T09:03:20.653Z,2944
2018-01-10T09:03:46.098Z,2976
2018-01-10T09:04:11.596Z,2996
2018-01-10T09:04:37.079Z,3036
2018-01-10T09:05:02.531Z,3056
2018-01-10T09:05:28.040Z,3076
2018-01-10T09:05:53.540Z,3100
2018-01-10T09:06:18.985Z,3108
2018-01-10T09:06:44.453Z,3120
2018-01-10T09:07:09.949Z,3140
2018-01-10T09:08:13.539Z,3180
2018-01-10T09:08:39.013Z,3212
2018-01-10T09:09:04.458Z,3232
2018-01-10T09:09:29.941Z,3260
2018-01-10T09:10:53.992Z,3300
2018-01-10T09:11:19.463Z,3312
2018-01-10T09:11:44.993Z,3328
2018-01-10T09:12:10.451Z,3348
2018-01-10T09:12:35.911Z,3376
2018-01-10T09:13:01.367Z,3400
2018-01-10T09:13:26.890Z,3428
2018-01-10T09:13:52.370Z,3448
2018-01-10T09:14:17.848Z,3468
2018-01-10T09:14:43.353Z,3492
2018-01-10T09:15:08.786Z,3520
2018-01-10T09:15:34.275Z,3536
2018-01-10T09:15:59.729Z,3544
2018-01-10T09:16:25.192Z,3556
2018-01-10T09:16:50.676Z,3544
2018-01-10T09:17:16.160Z,3528
2018-01-10T09:17:41.708Z,3528
2018-01-10T09:18:07.124Z,3548
2018-01-10T09:18:32.602Z,3544
2018-01-10T09:18:58.131Z,3532
2018-01-10T09:19:23.646Z,3536
2018-01-10T09:20:37.479Z,3484
2018-01-10T09:21:02.986Z,3476
2018-01-10T09:21:28.479Z,3468
2018-01-10T09:21:53.912Z,3464
2018-01-10T09:22:19.399Z,3448
2018-01-10T09:22:44.919Z,3464
2018-01-10T09:23:10.362Z,3484
2018-01-10T09:23:35.910Z,3500
2018-01-10T09:24:01.376Z,3504
2018-01-10T09:24:26.833Z,3480
2018-01-10T09:24:52.300Z,3448
2018-01-10T09:25:17.753Z,3404
2018-01-10T09:25:43.208Z,3336
2018-01-10T09:26:08.710Z,3260
2018-01-10T09:26:34.231Z,3192
2018-01-10T09:26:59.721Z,3148
2018-01-10T09:27:25.190Z,3100
2018-01-10T09:28:28.827Z,2960
2018-01-10T09:28:54.326Z,2860
2018-01-10T09:29:19.830Z,2732
2018-01-10T09:29:45.292Z,2580
2018-01-10T09:30:10.727Z,2428
2018-01-10T09:30:36.262Z,2292
2018-01-10T09:31:01.769Z,2204
2018-01-10T09:31:27.263Z,2156
2018-01-10T09:31:52.754Z,2152
2018-01-10T09:32:18.259Z,2156
2018-01-10T09:32:43.688Z,2168
2018-01-10T09:33:09.182Z,2212
2018-01-10T09:33:34.650Z,2284
2018-01-10T09:34:00.749Z,2332
2018-01-10T09:34:26.622Z,2384
2018-01-10T09:34:52.253Z,2424
2018-01-10T09:35:17.702Z,2436
2018-01-10T09:35:43.225Z,2428
2018-01-10T09:36:08.724Z,2388
2018-01-10T09:36:34.229Z,2336
2018-01-10T09:36:59.753Z,2284
2018-01-10T09:38:24.038Z,2072
2018-01-10T09:38:49.535Z,2004
2018-01-10T09:39:15.064Z,1940
2018-01-10T09:39:40.524Z,1876
2018-01-10T09:40:06.002Z,1828
2018-01-10T09:40:31.478Z,1788
2018-01-10T09:40:57.107Z,1756
2018-01-10T09:41:22.552Z,1712
2018-01-10T09:41:48.018Z,1660
2018-01-10T09:42:13.482Z,1596
2018-01-10T09:42:38.955Z,1532
2018-01-10T09:43:04.417Z,1496
2018-01-10T09:43:29.909Z,1476
2018-01-10T09:43:55.397Z,1464
2018-01-10T09:44:20.816Z,1444
2018-01-10T09:44:46.279Z,1412
2018-01-10T09:45:12.044Z,1360
2018-01-10T09:45:37.555Z,1316
2018-01-10T09:46:02.995Z,1292
2018-01-10T09:46:28.516Z,1292
2018-01-10T09:46:53.968Z,1300
2018-01-10T09:47:19.454Z,1316
2018-01-10T09:47:44.987Z,1328
2018-01-10T09:49:03.909Z,1424
2018-01-10T09:49:29.362Z,1436
2018-01-10T09:49:54.848Z,1432
2018-01-10T09:50:20.324Z,1396
2018-01-10T09:50:45.832Z,1348
2018-01-10T09:51:11.303Z,1304
2018-01-10T09:51:36.960Z,1264
2018-01-10T09:52:02.902Z,1232
2018-01-10T09:52:28.380Z,1204
2018-01-10T09:52:54.049Z,1180
2018-01-10T09:53:19.699Z,1164
2018-01-10T09:53:45.118Z,1160
2018-01-10T09:54:10.583Z,1156
2018-01-10T09:55:19.283Z,1164
2018-01-10T09:55:44.764Z,1192
2018-01-10T09:56:10.222Z,1248
2018-01-10T09:56:35.694Z,1316
2018-01-10T09:57:01.168Z,1360
2018-01-10T09:57:26.651Z,1396
2018-01-10T09:57:52.108Z,1452
2018-01-10T09:58:17.560Z,1504
2018-01-10T09:59:26.258Z,1636
2018-01-10T09:59:51.741Z,1712
2018-01-10T10:00:17.178Z,1796
2018-01-10T10:00:42.694Z,1868
2018-01-10T10:01:08.151Z,1924
2018-01-10T10:01:33.621Z,1980
2018-01-10T10:01:59.574Z,2032
2018-01-10T10:02:25.057Z,2096
2018-01-10T10:02:50.556Z,2208
2018-01-10T10:03:16.035Z,2344
2018-01-10T10:03:41.613Z,2460
2018-01-10T10:04:07.099Z,2556
2018-01-10T10:04:32.763Z,2628
2018-01-10T10:04:58.236Z,2660
2018-01-10T10:05:23.706Z,2680
2018-01-10T10:05:49.175Z,2704
2018-01-10T10:06:14.671Z,2708
2018-01-10T10:06:40.084Z,2680
2018-01-10T10:07:05.576Z,2640
2018-01-10T10:07:31.118Z,2608
2018-01-10T10:07:56.677Z,2572
2018-01-10T10:08:22.206Z,2544
2018-01-10T10:08:47.674Z,2536
2018-01-10T10:09:13.119Z,2564
2018-01-10T10:09:38.875Z,2604
2018-01-10T10:10:04.303Z,2680
2018-01-10T10:10:29.742Z,2760
2018-01-10T10:10:55.333Z,2848
2018-01-10T10:11:20.785Z,2920
2018-01-10T10:11:46.468Z,2988
2018-01-10T10:12:12.095Z,3096
2018-01-10T10:12:37.561Z,3232
2018-01-10T10:13:03.145Z,3348
2018-01-10T10:13:28.532Z,3408
2018-01-10T10:13:54.071Z,3408
2018-01-10T10:14:19.443Z,3384
2018-01-10T10:14:44.979Z,3344
2018-01-10T10:15:10.419Z,3248
2018-01-10T10:15:35.894Z,3120
2018-01-10T10:16:01.520Z,3004
2018-01-10T10:16:26.948Z,2900
2018-01-10T10:16:52.393Z,2836
2018-01-10T10:17:17.843Z,2812
2018-01-10T10:17:43.524Z,2808
2018-01-10T10:18:08.937Z,2832
2018-01-10T10:18:34.481Z,2892
2018-01-10T10:18:59.972Z,3000
2018-01-10T10:19:25.389Z,3132
2018-01-10T10:19:50.885Z,3200
2018-01-10T10:20:16.417Z,3184
2018-01-10T10:20:41.888Z,3156
2018-01-10T10:21:07.409Z,3112
2018-01-10T10:21:33.044Z,3084
2018-01-10T10:21:58.540Z,3092
2018-01-10T10:22:24.119Z,3120
2018-01-10T10:22:49.661Z,3128
2018-01-10T10:23:15.053Z,3136
2018-01-10T10:23:40.538Z,3184
2018-01-10T10:24:06.068Z,3236
2018-01-10T10:24:31.610Z,3300
2018-01-10T10:24:57.085Z,3360
2018-01-10T10:25:22.599Z,3396
2018-01-10T10:25:48.138Z,3420
2018-01-10T10:26:13.600Z,3444
2018-01-10T10:26:39.303Z,3480
2018-01-10T10:27:05.088Z,3516
2018-01-10T10:27:30.852Z,3556
2018-01-10T10:27:56.316Z,3556
2018-01-10T10:28:22.168Z,3548
2018-01-10T10:28:47.743Z,3580
2018-01-10T10:29:13.209Z,3616
2018-01-10T10:29:38.716Z,3620
2018-01-10T10:30:04.201Z,3624
2018-01-10T10:30:29.748Z,3680
2018-01-10T10:30:55.391Z,3716
2018-01-10T10:31:21.061Z,3720
2018-01-10T10:31:46.612Z,3732
2018-01-10T10:32:12.260Z,3756
2018-01-10T10:32:37.752Z,3760
2018-01-10T10:33:03.363Z,3748
2018-01-10T10:33:29.026Z,3700
2018-01-10T10:33:54.568Z,3676
2018-01-10T10:34:20.067Z,3676
2018-01-10T10:34:45.861Z,3664
2018-01-10T10:35:11.400Z,3624
2018-01-10T10:35:36.992Z,3592
2018-01-10T10:36:02.524Z,3552
2018-01-10T10:36:27.933Z,3516
2018-01-10T10:36:53.524Z,3492
2018-01-10T10:37:18.978Z,3488
2018-01-10T10:37:44.427Z,3496
2018-01-10T10:38:10.013Z,3504
2018-01-10T10:38:35.471Z,3516
2018-01-10T10:39:01.042Z,3580
2018-01-10T10:39:27.100Z,3628
2018-01-10T10:39:52.482Z,3664
2018-01-10T10:40:18.091Z,3764
2018-01-10T10:40:43.582Z,3828
2018-01-10T10:41:09.119Z,3872
2018-01-10T10:41:34.577Z,3868
2018-01-10T10:42:00.081Z,3860
2018-01-10T10:42:25.580Z,3860
2018-01-10T10:42:51.042Z,3840
2018-01-10T10:43:16.499Z,3812
2018-01-10T10:43:42.075Z,3752
2018-01-10T10:44:07.569Z,3756
2018-01-10T10:44:33.154Z,3760
2018-01-10T10:44:58.841Z,3752
2018-01-10T10:45:24.354Z,3704
2018-01-10T10:45:49.763Z,3552
2018-01-10T10:46:15.270Z,3332
2018-01-10T10:46:40.954Z,3108
2018-01-10T10:47:06.275Z,2944
2018-01-10T10:47:31.781Z,2868
2018-01-10T10:47:57.360Z,2872
2018-01-10T10:48:23.078Z,2924
2018-01-10T10:48:48.915Z,3000
2018-01-10T10:49:14.432Z,3088
2018-01-10T10:49:39.950Z,3172
2018-01-10T10:50:05.494Z,3232
2018-01-10T10:50:30.888Z,3248
2018-01-10T10:50:56.490Z,3244
2018-01-10T10:51:21.999Z,3252
2018-01-10T10:51:47.461Z,3260
2018-01-10T10:52:13.025Z,3280
2018-01-10T10:52:38.523Z,3276
2018-01-10T10:53:03.973Z,3260
2018-01-10T10:53:29.580Z,3248
2018-01-10T10:53:55.096Z,3228
2018-01-10T10:54:21.414Z,3200
2018-01-10T10:54:46.676Z,3144
2018-01-10T10:55:12.228Z,3076
2018-01-10T10:55:37.796Z,3004
2018-01-10T10:56:03.151Z,2940
2018-01-10T10:56:28.995Z,2872
2018-01-10T10:56:54.630Z,2840
2018-01-10T10:57:20.392Z,2868
2018-01-10T10:57:45.764Z,2936
2018-01-10T10:58:11.240Z,2976
2018-01-10T10:58:36.814Z,2952
2018-01-10T10:59:02.230Z,2892
2018-01-10T10:59:27.768Z,2812
2018-01-10T10:59:53.272Z,2720
2018-01-10T11:00:18.807Z,2636
2018-01-10T11:00:44.321Z,2564
2018-01-10T11:01:09.800Z,2484
2018-01-10T11:01:35.445Z,2396
2018-01-10T11:02:00.993Z,2320
2018-01-10T11:02:26.847Z,2232
2018-01-10T11:02:52.410Z,2156
2018-01-10T11:03:17.896Z,2096
2018-01-10T11:03:43.420Z,2064
2018-01-10T11:04:09.000Z,2044
2018-01-10T11:04:34.610Z,2044
2018-01-10T11:05:00.000Z,2092
2018-01-10T11:05:25.470Z,2164
2018-01-10T11:06:39.259Z,2408
2018-01-10T11:07:04.729Z,2504
2018-01-10T11:07:30.245Z,2584
2018-01-10T11:07:55.699Z,2656
2018-01-10T11:08:21.155Z,2696
2018-01-10T11:08:46.622Z,2700
2018-01-10T11:09:12.047Z,2676
2018-01-10T11:09:37.565Z,2648
2018-01-10T11:10:03.014Z,2628
2018-01-10T11:10:28.480Z,2612
2018-01-10T11:10:53.940Z,2604
2018-01-10T11:11:19.404Z,2596
2018-01-10T11:12:23.031Z,2588
2018-01-10T11:12:48.524Z,2564
2018-01-10T11:13:13.992Z,2512
2018-01-10T11:13:39.485Z,2440
2018-01-10T11:14:04.978Z,2372
2018-01-10T11:14:30.505Z,2312
2018-01-10T11:14:55.993Z,2276
2018-01-10T11:15:21.433Z,2268
2018-01-10T11:15:46.977Z,2296
2018-01-10T11:16:12.497Z,2364
2018-01-10T11:16:37.994Z,2464
2018-01-10T11:17:03.458Z,2576
2018-01-10T11:17:28.967Z,2728
2018-01-10T11:17:54.470Z,2884
2018-01-10T11:18:19.904Z,3012
2018-01-10T11:18:45.383Z,3128
2018-01-10T11:19:10.874Z,3220
2018-01-10T11:19:36.343Z,3272
2018-01-10T11:20:01.853Z,3312
2018-01-10T11:20:27.376Z,3388
2018-01-10T11:20:52.874Z,3500
2018-01-10T11:21:18.362Z,3596
2018-01-10T11:21:43.824Z,3644
2018-01-10T11:22:09.339Z,3628
2018-01-10T11:22:34.811Z,3608
2018-01-10T11:23:00.256Z,3584
2018-01-10T11:23:25.728Z,3532
2018-01-10T11:23:51.186Z,3504
2018-01-10T11:24:16.653Z,3496
2018-01-10T11:24:42.131Z,3452
2018-01-10T11:25:07.622Z,3388
2018-01-10T11:25:33.098Z,3340
2018-01-10T11:25:58.620Z,3292
2018-01-10T11:26:24.091Z,3276
2018-01-10T11:26:49.611Z,3260
2018-01-10T11:28:03.373Z,3184
2018-01-10T11:28:28.880Z,3168
2018-01-10T11:28:54.385Z,3172
2018-01-10T11:29:19.882Z,3188
2018-01-10T11:29:45.419Z,3216
2018-01-10T11:30:10.872Z,3244